sensor_id;sensor_type;location;lat;lon;timestamp;P1;durP1;ratioP1;P2;durP2;ratioP2
24102;SDS011;12278;53.058;9.028;2023-03-01T00:02:08;6.03;;;4.63;;
24102;SDS011;12278;53.058;9.028;2023-03-01T00:06:09;5.70;;;4.70;;
24102;SDS011;12278;53.058;9.028;2023-03-01T00:10:10;6.93;;;4.77;;
24102;SDS011;12278;53.058;9.028;2023-03-01T00:14:11;6.50;;;5.90;;
24102;SDS011;12278;53.058;9.028;2023-03-01T00:18:13;6.33;;;4.60;;
24102;SDS011;12278;53.058;9.028;2023-03-01T00:22:13;8.33;;;5.00;;
24102;SDS011;12278;53.058;9.028;2023-03-01T00:26:14;6.37;;;5.30;;
24102;SDS011;12278;53.058;9.028;2023-03-01T00:30:34;7.30;;;5.53;;
24102;SDS011;12278;53.058;9.028;2023-03-01T00:34:34;5.10;;;4.60;;
24102;SDS011;12278;53.058;9.028;2023-03-01T00:38:36;8.20;;;5.53;;
24102;SDS011;12278;53.058;9.028;2023-03-01T00:42:37;5.70;;;5.07;;
24102;SDS011;12278;53.058;9.028;2023-03-01T00:46:38;5.23;;;4.37;;
24102;SDS011;12278;53.058;9.028;2023-03-01T00:50:39;5.87;;;5.23;;
24102;SDS011;12278;53.058;9.028;2023-03-01T00:54:39;6.80;;;5.67;;
24102;SDS011;12278;53.058;9.028;2023-03-01T00:58:40;5.77;;;5.13;;
24102;SDS011;12278;53.058;9.028;2023-03-01T01:02:41;10.10;;;5.23;;
24102;SDS011;12278;53.058;9.028;2023-03-01T01:06:43;5.57;;;4.30;;
24102;SDS011;12278;53.058;9.028;2023-03-01T01:10:46;6.93;;;5.57;;
24102;SDS011;12278;53.058;9.028;2023-03-01T01:14:47;5.83;;;5.23;;
24102;SDS011;12278;53.058;9.028;2023-03-01T01:18:52;7.17;;;5.73;;
24102;SDS011;12278;53.058;9.028;2023-03-01T01:22:53;8.70;;;6.03;;
24102;SDS011;12278;53.058;9.028;2023-03-01T01:26:54;8.77;;;6.27;;
24102;SDS011;12278;53.058;9.028;2023-03-01T01:30:55;9.47;;;6.27;;
24102;SDS011;12278;53.058;9.028;2023-03-01T01:34:56;7.33;;;5.57;;
24102;SDS011;12278;53.058;9.028;2023-03-01T01:43:24;10.37;;;7.10;;
24102;SDS011;12278;53.058;9.028;2023-03-01T01:47:26;7.07;;;6.00;;
24102;SDS011;12278;53.058;9.028;2023-03-01T01:51:28;9.60;;;6.97;;
24102;SDS011;12278;53.058;9.028;2023-03-01T01:55:45;6.87;;;5.57;;
24102;SDS011;12278;53.058;9.028;2023-03-01T02:04:35;9.80;;;6.37;;
24102;SDS011;12278;53.058;9.028;2023-03-01T02:08:36;7.77;;;5.93;;
24102;SDS011;12278;53.058;9.028;2023-03-01T02:12:48;8.80;;;6.30;;
24102;SDS011;12278;53.058;9.028;2023-03-01T02:16:50;8.80;;;6.07;;
24102;SDS011;12278;53.058;9.028;2023-03-01T02:29:19;8.30;;;6.30;;
24102;SDS011;12278;53.058;9.028;2023-03-01T02:33:22;8.10;;;5.80;;
24102;SDS011;12278;53.058;9.028;2023-03-01T02:37:22;7.70;;;5.60;;
24102;SDS011;12278;53.058;9.028;2023-03-01T02:41:25;12.93;;;7.10;;
24102;SDS011;12278;53.058;9.028;2023-03-01T02:45:28;8.33;;;6.37;;
24102;SDS011;12278;53.058;9.028;2023-03-01T02:57:55;7.93;;;6.50;;
24102;SDS011;12278;53.058;9.028;2023-03-01T03:01:56;8.33;;;6.43;;
24102;SDS011;12278;53.058;9.028;2023-03-01T03:05:57;7.60;;;6.10;;
24102;SDS011;12278;53.058;9.028;2023-03-01T03:09:58;12.77;;;6.87;;
24102;SDS011;12278;53.058;9.028;2023-03-01T03:13:59;8.93;;;6.00;;
24102;SDS011;12278;53.058;9.028;2023-03-01T03:17:59;8.53;;;6.37;;
24102;SDS011;12278;53.058;9.028;2023-03-01T03:22:00;11.67;;;7.50;;
24102;SDS011;12278;53.058;9.028;2023-03-01T03:26:11;9.10;;;6.97;;
24102;SDS011;12278;53.058;9.028;2023-03-01T03:30:14;9.83;;;6.63;;
24102;SDS011;12278;53.058;9.028;2023-03-01T03:34:17;15.03;;;7.57;;
24102;SDS011;12278;53.058;9.028;2023-03-01T03:38:19;12.77;;;6.70;;
24102;SDS011;12278;53.058;9.028;2023-03-01T03:42:21;8.87;;;6.40;;
24102;SDS011;12278;53.058;9.028;2023-03-01T03:46:22;10.60;;;6.80;;
24102;SDS011;12278;53.058;9.028;2023-03-01T03:50:23;9.67;;;6.63;;
24102;SDS011;12278;53.058;9.028;2023-03-01T03:54:24;8.30;;;6.10;;
24102;SDS011;12278;53.058;9.028;2023-03-01T03:58:25;9.63;;;6.47;;
24102;SDS011;12278;53.058;9.028;2023-03-01T04:02:26;9.47;;;6.57;;
24102;SDS011;12278;53.058;9.028;2023-03-01T04:06:26;9.03;;;6.23;;
24102;SDS011;12278;53.058;9.028;2023-03-01T04:10:28;7.83;;;6.30;;
24102;SDS011;12278;53.058;9.028;2023-03-01T04:14:31;7.13;;;5.13;;
24102;SDS011;12278;53.058;9.028;2023-03-01T04:18:31;8.73;;;5.47;;
24102;SDS011;12278;53.058;9.028;2023-03-01T04:22:32;7.47;;;5.60;;
24102;SDS011;12278;53.058;9.028;2023-03-01T04:26:33;8.53;;;6.00;;
24102;SDS011;12278;53.058;9.028;2023-03-01T04:30:34;8.27;;;6.27;;
24102;SDS011;12278;53.058;9.028;2023-03-01T04:34:35;8.07;;;5.90;;
24102;SDS011;12278;53.058;9.028;2023-03-01T04:38:37;7.57;;;5.60;;
24102;SDS011;12278;53.058;9.028;2023-03-01T04:42:38;10.60;;;6.90;;
24102;SDS011;12278;53.058;9.028;2023-03-01T04:46:39;9.00;;;5.13;;
24102;SDS011;12278;53.058;9.028;2023-03-01T04:50:53;8.80;;;5.40;;
24102;SDS011;12278;53.058;9.028;2023-03-01T04:54:55;8.03;;;5.90;;
24102;SDS011;12278;53.058;9.028;2023-03-01T04:58:55;6.60;;;5.77;;
24102;SDS011;12278;53.058;9.028;2023-03-01T05:02:57;9.07;;;5.97;;
24102;SDS011;12278;53.058;9.028;2023-03-01T05:07:00;8.17;;;5.73;;
24102;SDS011;12278;53.058;9.028;2023-03-01T05:11:01;6.10;;;4.97;;
24102;SDS011;12278;53.058;9.028;2023-03-01T05:15:03;7.77;;;5.57;;
24102;SDS011;12278;53.058;9.028;2023-03-01T05:19:06;8.93;;;5.70;;
24102;SDS011;12278;53.058;9.028;2023-03-01T05:23:15;7.63;;;5.00;;
24102;SDS011;12278;53.058;9.028;2023-03-01T05:27:22;6.17;;;5.47;;
24102;SDS011;12278;53.058;9.028;2023-03-01T05:31:22;6.17;;;5.00;;
24102;SDS011;12278;53.058;9.028;2023-03-01T05:35:23;5.63;;;4.77;;
24102;SDS011;12278;53.058;9.028;2023-03-01T05:39:24;9.13;;;5.43;;
24102;SDS011;12278;53.058;9.028;2023-03-01T05:43:29;6.00;;;5.03;;
24102;SDS011;12278;53.058;9.028;2023-03-01T05:47:33;6.00;;;4.77;;
24102;SDS011;12278;53.058;9.028;2023-03-01T05:51:35;7.53;;;4.93;;
24102;SDS011;12278;53.058;9.028;2023-03-01T05:55:35;8.53;;;5.37;;
24102;SDS011;12278;53.058;9.028;2023-03-01T05:59:37;6.33;;;5.63;;
24102;SDS011;12278;53.058;9.028;2023-03-01T06:03:37;7.00;;;5.73;;
24102;SDS011;12278;53.058;9.028;2023-03-01T06:07:38;8.60;;;5.70;;
24102;SDS011;12278;53.058;9.028;2023-03-01T06:11:39;6.57;;;5.17;;
24102;SDS011;12278;53.058;9.028;2023-03-01T06:15:40;7.63;;;5.70;;
24102;SDS011;12278;53.058;9.028;2023-03-01T06:19:40;8.90;;;6.10;;
24102;SDS011;12278;53.058;9.028;2023-03-01T06:23:41;7.13;;;5.77;;
24102;SDS011;12278;53.058;9.028;2023-03-01T06:27:41;7.80;;;5.63;;
24102;SDS011;12278;53.058;9.028;2023-03-01T06:31:42;8.50;;;5.90;;
24102;SDS011;12278;53.058;9.028;2023-03-01T06:35:43;12.60;;;7.37;;
24102;SDS011;12278;53.058;9.028;2023-03-01T06:39:43;9.83;;;6.17;;
24102;SDS011;12278;53.058;9.028;2023-03-01T06:43:44;10.20;;;6.60;;
24102;SDS011;12278;53.058;9.028;2023-03-01T06:47:45;10.60;;;6.53;;
24102;SDS011;12278;53.058;9.028;2023-03-01T06:51:46;11.17;;;6.10;;
24102;SDS011;12278;53.058;9.028;2023-03-01T06:55:46;10.03;;;6.50;;
24102;SDS011;12278;53.058;9.028;2023-03-01T06:59:47;9.30;;;6.50;;
24102;SDS011;12278;53.058;9.028;2023-03-01T07:03:48;9.70;;;7.43;;
24102;SDS011;12278;53.058;9.028;2023-03-01T07:07:48;9.07;;;6.93;;
24102;SDS011;12278;53.058;9.028;2023-03-01T07:11:49;8.70;;;7.17;;
24102;SDS011;12278;53.058;9.028;2023-03-01T07:15:50;12.87;;;6.70;;
24102;SDS011;12278;53.058;9.028;2023-03-01T07:19:51;10.63;;;6.50;;
24102;SDS011;12278;53.058;9.028;2023-03-01T07:23:51;9.93;;;6.10;;
24102;SDS011;12278;53.058;9.028;2023-03-01T07:27:52;8.87;;;5.23;;
24102;SDS011;12278;53.058;9.028;2023-03-01T07:31:53;7.10;;;5.40;;
24102;SDS011;12278;53.058;9.028;2023-03-01T07:35:57;9.93;;;7.23;;
24102;SDS011;12278;53.058;9.028;2023-03-01T07:39:59;15.43;;;9.87;;
24102;SDS011;12278;53.058;9.028;2023-03-01T07:44:00;10.97;;;8.07;;
24102;SDS011;12278;53.058;9.028;2023-03-01T07:48:01;11.90;;;8.17;;
24102;SDS011;12278;53.058;9.028;2023-03-01T07:52:01;18.87;;;9.50;;
24102;SDS011;12278;53.058;9.028;2023-03-01T07:56:12;12.37;;;9.37;;
24102;SDS011;12278;53.058;9.028;2023-03-01T08:00:13;12.17;;;7.80;;
24102;SDS011;12278;53.058;9.028;2023-03-01T08:04:14;8.77;;;7.33;;
24102;SDS011;12278;53.058;9.028;2023-03-01T08:08:15;8.77;;;6.77;;
24102;SDS011;12278;53.058;9.028;2023-03-01T08:12:15;9.03;;;7.17;;
24102;SDS011;12278;53.058;9.028;2023-03-01T08:16:16;9.13;;;6.63;;
24102;SDS011;12278;53.058;9.028;2023-03-01T08:20:17;10.27;;;7.23;;
24102;SDS011;12278;53.058;9.028;2023-03-01T08:24:18;9.57;;;6.73;;
24102;SDS011;12278;53.058;9.028;2023-03-01T08:28:18;8.17;;;6.40;;
24102;SDS011;12278;53.058;9.028;2023-03-01T08:32:19;9.83;;;6.80;;
24102;SDS011;12278;53.058;9.028;2023-03-01T08:36:20;7.83;;;6.30;;
24102;SDS011;12278;53.058;9.028;2023-03-01T08:40:21;12.63;;;6.40;;
24102;SDS011;12278;53.058;9.028;2023-03-01T08:44:22;7.17;;;5.90;;
24102;SDS011;12278;53.058;9.028;2023-03-01T08:48:22;9.80;;;6.23;;
24102;SDS011;12278;53.058;9.028;2023-03-01T08:52:23;8.87;;;5.87;;
24102;SDS011;12278;53.058;9.028;2023-03-01T08:56:24;7.10;;;5.50;;
24102;SDS011;12278;53.058;9.028;2023-03-01T09:00:25;8.73;;;5.77;;
24102;SDS011;12278;53.058;9.028;2023-03-01T09:04:25;7.47;;;5.80;;
24102;SDS011;12278;53.058;9.028;2023-03-01T09:08:26;8.10;;;5.80;;
24102;SDS011;12278;53.058;9.028;2023-03-01T09:12:27;11.20;;;6.45;;
24102;SDS011;12278;53.058;9.028;2023-03-01T09:16:27;8.60;;;6.10;;
24102;SDS011;12278;53.058;9.028;2023-03-01T09:20:29;8.10;;;5.63;;
24102;SDS011;12278;53.058;9.028;2023-03-01T09:24:31;8.65;;;5.60;;
24102;SDS011;12278;53.058;9.028;2023-03-01T09:28:32;11.00;;;6.60;;
24102;SDS011;12278;53.058;9.028;2023-03-01T09:32:32;8.70;;;6.17;;
24102;SDS011;12278;53.058;9.028;2023-03-01T09:36:33;7.25;;;6.50;;
24102;SDS011;12278;53.058;9.028;2023-03-01T09:40:34;10.33;;;6.13;;
24102;SDS011;12278;53.058;9.028;2023-03-01T09:48:49;7.23;;;5.43;;
24102;SDS011;12278;53.058;9.028;2023-03-01T09:57:17;5.23;;;3.83;;
24102;SDS011;12278;53.058;9.028;2023-03-01T10:01:33;6.70;;;3.17;;
24102;SDS011;12278;53.058;9.028;2023-03-01T10:10:04;4.47;;;3.00;;
24102;SDS011;12278;53.058;9.028;2023-03-01T10:18:30;3.93;;;3.50;;
24102;SDS011;12278;53.058;9.028;2023-03-01T10:22:33;5.97;;;3.30;;
24102;SDS011;12278;53.058;9.028;2023-03-01T10:30:44;4.60;;;3.97;;
24102;SDS011;12278;53.058;9.028;2023-03-01T10:34:45;6.57;;;4.30;;
24102;SDS011;12278;53.058;9.028;2023-03-01T10:42:59;9.00;;;5.50;;
24102;SDS011;12278;53.058;9.028;2023-03-01T10:47:03;6.28;;;5.35;;
24102;SDS011;12278;53.058;9.028;2023-03-01T10:51:05;7.32;;;4.80;;
24102;SDS011;12278;53.058;9.028;2023-03-01T10:59:37;6.72;;;4.55;;
24102;SDS011;12278;53.058;9.028;2023-03-01T11:03:38;8.18;;;5.70;;
24102;SDS011;12278;53.058;9.028;2023-03-01T11:07:46;7.55;;;5.75;;
24102;SDS011;12278;53.058;9.028;2023-03-01T11:11:55;8.20;;;5.55;;
24102;SDS011;12278;53.058;9.028;2023-03-01T11:15:58;7.32;;;6.60;;
24102;SDS011;12278;53.058;9.028;2023-03-01T11:24:13;8.43;;;7.05;;
24102;SDS011;12278;53.058;9.028;2023-03-01T11:28:16;8.48;;;6.75;;
24102;SDS011;12278;53.058;9.028;2023-03-01T11:32:19;6.63;;;5.93;;
24102;SDS011;12278;53.058;9.028;2023-03-01T11:40:49;11.15;;;6.20;;
24102;SDS011;12278;53.058;9.028;2023-03-01T11:45:02;8.93;;;6.55;;
24102;SDS011;12278;53.058;9.028;2023-03-01T11:53:41;9.85;;;6.85;;
24102;SDS011;12278;53.058;9.028;2023-03-01T12:10:57;6.88;;;6.18;;
24102;SDS011;12278;53.058;9.028;2023-03-01T12:19:26;7.97;;;6.45;;
24102;SDS011;12278;53.058;9.028;2023-03-01T12:32:34;6.78;;;6.15;;
24102;SDS011;12278;53.058;9.028;2023-03-01T12:36:39;8.63;;;6.50;;
24102;SDS011;12278;53.058;9.028;2023-03-01T12:49:38;7.50;;;6.45;;
24102;SDS011;12278;53.058;9.028;2023-03-01T12:53:47;7.45;;;6.70;;
24102;SDS011;12278;53.058;9.028;2023-03-01T12:57:56;9.30;;;6.63;;
24102;SDS011;12278;53.058;9.028;2023-03-01T13:02:18;7.72;;;6.82;;
24102;SDS011;12278;53.058;9.028;2023-03-01T13:06:43;8.45;;;7.20;;
24102;SDS011;12278;53.058;9.028;2023-03-01T13:10:58;8.32;;;6.63;;
24102;SDS011;12278;53.058;9.028;2023-03-01T13:15:03;7.78;;;6.25;;
24102;SDS011;12278;53.058;9.028;2023-03-01T13:19:13;8.32;;;6.97;;
24102;SDS011;12278;53.058;9.028;2023-03-01T13:23:36;8.20;;;7.10;;
24102;SDS011;12278;53.058;9.028;2023-03-01T13:27:39;8.27;;;7.20;;
24102;SDS011;12278;53.058;9.028;2023-03-01T13:35:41;8.80;;;6.78;;
24102;SDS011;12278;53.058;9.028;2023-03-01T13:39:42;7.70;;;6.80;;
24102;SDS011;12278;53.058;9.028;2023-03-01T13:43:44;8.77;;;6.35;;
24102;SDS011;12278;53.058;9.028;2023-03-01T13:47:49;7.68;;;6.40;;
24102;SDS011;12278;53.058;9.028;2023-03-01T13:51:54;6.60;;;5.57;;
24102;SDS011;12278;53.058;9.028;2023-03-01T13:55:55;7.90;;;6.07;;
24102;SDS011;12278;53.058;9.028;2023-03-01T14:00:01;6.32;;;5.70;;
24102;SDS011;12278;53.058;9.028;2023-03-01T14:04:26;6.55;;;5.85;;
24102;SDS011;12278;53.058;9.028;2023-03-01T14:08:28;7.85;;;6.18;;
24102;SDS011;12278;53.058;9.028;2023-03-01T14:21:14;6.97;;;6.20;;
24102;SDS011;12278;53.058;9.028;2023-03-01T14:25:17;6.10;;;5.50;;
24102;SDS011;12278;53.058;9.028;2023-03-01T14:29:25;7.72;;;6.93;;
24102;SDS011;12278;53.058;9.028;2023-03-01T14:37:34;7.68;;;5.72;;
24102;SDS011;12278;53.058;9.028;2023-03-01T14:41:35;6.28;;;5.68;;
24102;SDS011;12278;53.058;9.028;2023-03-01T14:45:36;7.65;;;5.60;;
24102;SDS011;12278;53.058;9.028;2023-03-01T14:49:37;6.45;;;5.38;;
24102;SDS011;12278;53.058;9.028;2023-03-01T14:53:38;8.20;;;5.82;;
24102;SDS011;12278;53.058;9.028;2023-03-01T14:57:42;7.43;;;6.63;;
24102;SDS011;12278;53.058;9.028;2023-03-01T15:01:44;6.53;;;5.82;;
24102;SDS011;12278;53.058;9.028;2023-03-01T15:05:45;8.38;;;6.20;;
24102;SDS011;12278;53.058;9.028;2023-03-01T15:09:46;6.00;;;5.30;;
24102;SDS011;12278;53.058;9.028;2023-03-01T15:13:50;8.25;;;6.53;;
24102;SDS011;12278;53.058;9.028;2023-03-01T15:17:56;11.52;;;6.53;;
24102;SDS011;12278;53.058;9.028;2023-03-01T15:22:00;7.72;;;6.80;;
24102;SDS011;12278;53.058;9.028;2023-03-01T15:26:31;9.10;;;7.97;;
24102;SDS011;12278;53.058;9.028;2023-03-01T15:30:37;9.15;;;8.10;;
24102;SDS011;12278;53.058;9.028;2023-03-01T15:34:38;8.98;;;8.07;;
24102;SDS011;12278;53.058;9.028;2023-03-01T15:42:54;9.48;;;8.13;;
24102;SDS011;12278;53.058;9.028;2023-03-01T15:46:55;8.98;;;7.65;;
24102;SDS011;12278;53.058;9.028;2023-03-01T15:50:57;9.55;;;8.27;;
24102;SDS011;12278;53.058;9.028;2023-03-01T15:55:00;9.65;;;7.88;;
24102;SDS011;12278;53.058;9.028;2023-03-01T15:59:03;9.50;;;8.50;;
24102;SDS011;12278;53.058;9.028;2023-03-01T16:03:04;10.52;;;8.40;;
24102;SDS011;12278;53.058;9.028;2023-03-01T16:07:09;9.20;;;8.30;;
24102;SDS011;12278;53.058;9.028;2023-03-01T16:11:20;9.38;;;8.35;;
24102;SDS011;12278;53.058;9.028;2023-03-01T16:15:28;10.52;;;8.80;;
24102;SDS011;12278;53.058;9.028;2023-03-01T16:19:30;8.90;;;7.85;;
24102;SDS011;12278;53.058;9.028;2023-03-01T16:23:30;9.90;;;7.88;;
24102;SDS011;12278;53.058;9.028;2023-03-01T16:27:31;11.35;;;9.23;;
24102;SDS011;12278;53.058;9.028;2023-03-01T16:31:32;10.55;;;8.45;;
24102;SDS011;12278;53.058;9.028;2023-03-01T16:35:32;13.38;;;9.55;;
24102;SDS011;12278;53.058;9.028;2023-03-01T16:39:33;13.87;;;9.70;;
24102;SDS011;12278;53.058;9.028;2023-03-01T16:43:33;14.90;;;10.73;;
24102;SDS011;12278;53.058;9.028;2023-03-01T16:47:34;13.87;;;9.73;;
24102;SDS011;12278;53.058;9.028;2023-03-01T16:51:35;17.10;;;10.27;;
24102;SDS011;12278;53.058;9.028;2023-03-01T16:55:36;13.83;;;9.17;;
24102;SDS011;12278;53.058;9.028;2023-03-01T16:59:37;16.73;;;10.97;;
24102;SDS011;12278;53.058;9.028;2023-03-01T17:03:38;15.63;;;10.87;;
24102;SDS011;12278;53.058;9.028;2023-03-01T17:07:39;16.77;;;11.70;;
24102;SDS011;12278;53.058;9.028;2023-03-01T17:11:40;17.50;;;11.67;;
24102;SDS011;12278;53.058;9.028;2023-03-01T17:15:41;15.23;;;10.63;;
24102;SDS011;12278;53.058;9.028;2023-03-01T17:19:42;16.13;;;10.67;;
24102;SDS011;12278;53.058;9.028;2023-03-01T17:23:43;13.63;;;10.30;;
24102;SDS011;12278;53.058;9.028;2023-03-01T17:27:45;14.33;;;10.37;;
24102;SDS011;12278;53.058;9.028;2023-03-01T17:31:46;18.53;;;11.27;;
24102;SDS011;12278;53.058;9.028;2023-03-01T17:35:46;19.80;;;11.40;;
24102;SDS011;12278;53.058;9.028;2023-03-01T17:39:47;19.87;;;12.30;;
24102;SDS011;12278;53.058;9.028;2023-03-01T17:43:48;19.77;;;12.83;;
24102;SDS011;12278;53.058;9.028;2023-03-01T17:47:54;22.07;;;14.10;;
24102;SDS011;12278;53.058;9.028;2023-03-01T17:51:55;19.43;;;14.23;;
24102;SDS011;12278;53.058;9.028;2023-03-01T17:56:00;19.67;;;13.20;;
24102;SDS011;12278;53.058;9.028;2023-03-01T18:00:03;18.73;;;13.50;;
24102;SDS011;12278;53.058;9.028;2023-03-01T18:04:04;22.13;;;15.03;;
24102;SDS011;12278;53.058;9.028;2023-03-01T18:08:05;20.03;;;13.43;;
24102;SDS011;12278;53.058;9.028;2023-03-01T18:12:05;21.70;;;14.93;;
24102;SDS011;12278;53.058;9.028;2023-03-01T18:16:07;20.63;;;13.70;;
24102;SDS011;12278;53.058;9.028;2023-03-01T18:20:09;24.27;;;14.97;;
24102;SDS011;12278;53.058;9.028;2023-03-01T18:24:12;24.37;;;14.37;;
24102;SDS011;12278;53.058;9.028;2023-03-01T18:28:12;21.47;;;12.87;;
24102;SDS011;12278;53.058;9.028;2023-03-01T18:32:13;18.60;;;13.83;;
24102;SDS011;12278;53.058;9.028;2023-03-01T18:36:19;21.40;;;13.90;;
24102;SDS011;12278;53.058;9.028;2023-03-01T18:40:30;24.27;;;14.70;;
24102;SDS011;12278;53.058;9.028;2023-03-01T18:44:31;27.37;;;15.33;;
24102;SDS011;12278;53.058;9.028;2023-03-01T18:48:32;22.63;;;14.33;;
24102;SDS011;12278;53.058;9.028;2023-03-01T18:52:35;21.60;;;14.47;;
24102;SDS011;12278;53.058;9.028;2023-03-01T19:00:53;22.17;;;13.97;;
24102;SDS011;12278;53.058;9.028;2023-03-01T19:04:55;22.33;;;13.80;;
24102;SDS011;12278;53.058;9.028;2023-03-01T19:08:55;23.43;;;13.50;;
24102;SDS011;12278;53.058;9.028;2023-03-01T19:12:56;21.10;;;12.97;;
24102;SDS011;12278;53.058;9.028;2023-03-01T19:16:57;22.97;;;13.87;;
24102;SDS011;12278;53.058;9.028;2023-03-01T19:20:58;21.20;;;12.93;;
24102;SDS011;12278;53.058;9.028;2023-03-01T19:25:01;23.93;;;13.73;;
24102;SDS011;12278;53.058;9.028;2023-03-01T19:29:01;21.93;;;13.17;;
24102;SDS011;12278;53.058;9.028;2023-03-01T19:33:03;22.13;;;13.60;;
24102;SDS011;12278;53.058;9.028;2023-03-01T19:37:04;25.00;;;13.17;;
24102;SDS011;12278;53.058;9.028;2023-03-01T19:41:06;22.83;;;14.20;;
24102;SDS011;12278;53.058;9.028;2023-03-01T19:45:13;30.70;;;15.77;;
24102;SDS011;12278;53.058;9.028;2023-03-01T19:49:14;25.87;;;14.23;;
24102;SDS011;12278;53.058;9.028;2023-03-01T19:53:14;28.00;;;14.57;;
24102;SDS011;12278;53.058;9.028;2023-03-01T19:57:20;27.60;;;16.03;;
24102;SDS011;12278;53.058;9.028;2023-03-01T20:01:21;27.07;;;14.30;;
24102;SDS011;12278;53.058;9.028;2023-03-01T20:05:23;28.40;;;16.17;;
24102;SDS011;12278;53.058;9.028;2023-03-01T20:09:23;21.67;;;13.67;;
24102;SDS011;12278;53.058;9.028;2023-03-01T20:13:24;24.60;;;14.33;;
24102;SDS011;12278;53.058;9.028;2023-03-01T20:17:24;27.33;;;15.60;;
24102;SDS011;12278;53.058;9.028;2023-03-01T20:21:25;28.57;;;16.07;;
24102;SDS011;12278;53.058;9.028;2023-03-01T20:25:26;28.73;;;15.00;;
24102;SDS011;12278;53.058;9.028;2023-03-01T20:29:27;26.27;;;14.57;;
24102;SDS011;12278;53.058;9.028;2023-03-01T20:33:38;25.57;;;15.37;;
24102;SDS011;12278;53.058;9.028;2023-03-01T20:37:39;26.03;;;15.57;;
24102;SDS011;12278;53.058;9.028;2023-03-01T20:41:40;23.80;;;15.03;;
24102;SDS011;12278;53.058;9.028;2023-03-01T20:45:40;26.33;;;15.10;;
24102;SDS011;12278;53.058;9.028;2023-03-01T20:49:41;28.47;;;15.30;;
24102;SDS011;12278;53.058;9.028;2023-03-01T20:53:41;23.80;;;14.63;;
24102;SDS011;12278;53.058;9.028;2023-03-01T20:57:42;22.83;;;14.37;;
24102;SDS011;12278;53.058;9.028;2023-03-01T21:01:43;23.33;;;14.03;;
24102;SDS011;12278;53.058;9.028;2023-03-01T21:05:44;24.83;;;12.97;;
24102;SDS011;12278;53.058;9.028;2023-03-01T21:09:54;22.50;;;13.27;;
24102;SDS011;12278;53.058;9.028;2023-03-01T21:13:56;23.20;;;13.67;;
24102;SDS011;12278;53.058;9.028;2023-03-01T21:17:57;20.40;;;13.13;;
24102;SDS011;12278;53.058;9.028;2023-03-01T21:21:58;19.40;;;13.60;;
24102;SDS011;12278;53.058;9.028;2023-03-01T21:26:16;23.53;;;15.00;;
24102;SDS011;12278;53.058;9.028;2023-03-01T21:30:21;18.70;;;13.37;;
24102;SDS011;12278;53.058;9.028;2023-03-01T21:34:21;23.83;;;15.23;;
24102;SDS011;12278;53.058;9.028;2023-03-01T21:38:22;21.50;;;15.17;;
24102;SDS011;12278;53.058;9.028;2023-03-01T21:42:23;21.37;;;14.97;;
24102;SDS011;12278;53.058;9.028;2023-03-01T21:46:25;25.53;;;15.80;;
24102;SDS011;12278;53.058;9.028;2023-03-01T21:50:29;24.73;;;14.93;;
24102;SDS011;12278;53.058;9.028;2023-03-01T21:54:38;22.90;;;14.50;;
24102;SDS011;12278;53.058;9.028;2023-03-01T21:58:38;25.40;;;16.03;;
24102;SDS011;12278;53.058;9.028;2023-03-01T22:02:44;28.80;;;15.70;;
24102;SDS011;12278;53.058;9.028;2023-03-01T22:06:45;31.37;;;16.03;;
24102;SDS011;12278;53.058;9.028;2023-03-01T22:10:48;51.47;;;17.17;;
24102;SDS011;12278;53.058;9.028;2023-03-01T22:14:49;28.43;;;15.80;;
24102;SDS011;12278;53.058;9.028;2023-03-01T22:18:50;30.93;;;16.03;;
24102;SDS011;12278;53.058;9.028;2023-03-01T22:22:50;30.80;;;15.50;;
24102;SDS011;12278;53.058;9.028;2023-03-01T22:26:52;23.33;;;15.13;;
24102;SDS011;12278;53.058;9.028;2023-03-01T22:30:53;26.17;;;15.93;;
24102;SDS011;12278;53.058;9.028;2023-03-01T22:34:54;21.20;;;13.30;;
24102;SDS011;12278;53.058;9.028;2023-03-01T22:38:54;18.03;;;13.00;;
24102;SDS011;12278;53.058;9.028;2023-03-01T22:42:58;16.23;;;12.63;;
24102;SDS011;12278;53.058;9.028;2023-03-01T22:46:59;18.13;;;12.37;;
24102;SDS011;12278;53.058;9.028;2023-03-01T22:51:00;16.97;;;12.97;;
24102;SDS011;12278;53.058;9.028;2023-03-01T22:55:01;15.00;;;11.93;;
24102;SDS011;12278;53.058;9.028;2023-03-01T22:59:03;18.27;;;11.87;;
24102;SDS011;12278;53.058;9.028;2023-03-01T23:03:09;16.63;;;12.00;;
24102;SDS011;12278;53.058;9.028;2023-03-01T23:07:10;17.83;;;12.53;;
24102;SDS011;12278;53.058;9.028;2023-03-01T23:11:11;18.17;;;12.57;;
24102;SDS011;12278;53.058;9.028;2023-03-01T23:15:21;23.73;;;16.10;;
24102;SDS011;12278;53.058;9.028;2023-03-01T23:19:22;21.03;;;15.10;;
24102;SDS011;12278;53.058;9.028;2023-03-01T23:23:22;23.53;;;13.80;;
24102;SDS011;12278;53.058;9.028;2023-03-01T23:27:23;21.07;;;15.10;;
24102;SDS011;12278;53.058;9.028;2023-03-01T23:31:27;23.07;;;13.50;;
24102;SDS011;12278;53.058;9.028;2023-03-01T23:35:29;22.80;;;15.17;;
24102;SDS011;12278;53.058;9.028;2023-03-01T23:39:29;33.63;;;15.77;;
24102;SDS011;12278;53.058;9.028;2023-03-01T23:43:31;21.87;;;14.50;;
24102;SDS011;12278;53.058;9.028;2023-03-01T23:47:32;26.70;;;16.30;;
24102;SDS011;12278;53.058;9.028;2023-03-01T23:51:32;22.27;;;13.97;;
24102;SDS011;12278;53.058;9.028;2023-03-01T23:55:33;34.83;;;15.60;;
24102;SDS011;12278;53.058;9.028;2023-03-01T23:59:35;27.30;;;16.00;;
